Time;durP1;ratioP1;P1;durP2;ratioP2;P2;SDS_P1;SDS_P2;PMS_P1;PMS_P2;Temp;Humidity;BMP_temperature;BMP_pressure;BME280_temperature;BME280_humidity;BME280_pressure;Samples;Min_cycle;Max_cycle;Signal;HPM_P1;HPM_P2
2020/12/24 00:00:37;;;;;;;10.87;2.70;;;;;8.90;100192.00;;;;10563656;28;20227;-77
2020/12/24 00:05:39;;;;;;;14.63;2.47;;;;;8.70;100189.00;;;;10564942;28;20234;-77
2020/12/24 00:10:40;;;;;;;13.93;3.07;;;;;8.50;100187.00;;;;10569460;27;20191;-76
2020/12/24 00:15:43;;;;;;;10.77;2.93;;;;;8.40;100177.00;;;;10589810;27;20295;-77
2020/12/24 00:20:52;;;;;;;8.20;2.37;;;;;8.30;100160.00;;;;10573372;27;20264;-77
2020/12/24 00:25:54;;;;;;;18.83;3.23;;;;;8.30;100165.00;;;;10589955;27;20308;-76
2020/12/24 00:30:55;;;;;;;16.83;2.63;;;;;8.30;100149.00;;;;10606020;27;20240;-77
2020/12/24 00:35:56;;;;;;;15.67;2.50;;;;;8.30;100148.00;;;;10572630;27;20195;-77
2020/12/24 00:40:58;;;;;;;12.80;2.27;;;;;8.40;100145.00;;;;10588696;27;20685;-76
2020/12/24 00:45:59;;;;;;;10.43;2.10;;;;;8.50;100150.00;;;;10588193;27;20223;-77
2020/12/24 00:51:10;;;;;;;8.20;1.57;;;;;8.50;100142.00;;;;10591276;27;20180;-76
2020/12/24 00:56:12;;;;;;;8.83;2.03;;;;;8.50;100142.00;;;;10512624;28;20299;-76
2020/12/24 01:01:27;;;;;;;9.97;3.50;;;;;8.50;100149.00;;;;10527582;28;20215;-77
2020/12/24 01:06:28;;;;;;;12.90;2.07;;;;;8.60;100130.00;;;;10546513;28;20581;-77
2020/12/24 01:11:30;;;;;;;8.07;1.93;;;;;8.50;100143.00;;;;10529153;28;20659;-77
2020/12/24 01:16:32;;;;;;;8.67;2.07;;;;;8.30;100140.00;;;;10563253;28;20671;-77
2020/12/24 01:21:33;;;;;;;11.83;2.40;;;;;8.20;100144.00;;;;10526657;28;20200;-77
2020/12/24 01:26:34;;;;;;;10.20;2.03;;;;;8.20;100136.00;;;;10577937;28;20187;-77
2020/12/24 01:31:36;;;;;;;10.00;2.13;;;;;8.20;100133.00;;;;10588405;28;20184;-76
2020/12/24 01:36:37;;;;;;;11.30;1.90;;;;;8.20;100140.00;;;;10570426;28;20290;-77
2020/12/24 01:41:40;;;;;;;8.10;2.50;;;;;8.20;100139.00;;;;10587294;28;20252;-77
2020/12/24 01:46:41;;;;;;;12.17;3.10;;;;;8.20;100143.00;;;;10544113;28;20221;-76
2020/12/24 01:51:55;;;;;;;9.97;2.17;;;;;8.20;100150.00;;;;10545842;28;20214;-77
2020/12/24 01:56:56;;;;;;;12.73;2.97;;;;;8.20;100150.00;;;;10548977;28;20287;-77
2020/12/24 02:01:58;;;;;;;10.87;1.90;;;;;8.20;100132.00;;;;10569092;28;20188;-77
2020/12/24 02:06:59;;;;;;;12.13;2.20;;;;;8.10;100138.00;;;;10545677;28;20257;-76
2020/12/24 02:12:03;;;;;;;9.63;2.33;;;;;8.10;100143.00;;;;10553089;28;20207;-76
2020/12/24 02:17:04;;;;;;;9.70;1.70;;;;;8.20;100136.00;;;;10602359;27;20196;-76
2020/12/24 02:22:10;;;;;;;10.53;1.97;;;;;8.20;100133.00;;;;10580295;27;20195;-76
2020/12/24 02:27:12;;;;;;;11.83;1.93;;;;;8.20;100131.00;;;;10549834;28;20209;-77
2020/12/24 02:32:13;;;;;;;9.10;2.10;;;;;8.20;100133.00;;;;10544236;28;20245;-77
2020/12/24 02:37:15;;;;;;;10.43;2.10;;;;;8.20;100134.00;;;;10530972;28;20254;-76
2020/12/24 02:42:17;;;;;;;11.43;2.60;;;;;8.30;100130.00;;;;10537069;28;20209;-76
2020/12/24 02:47:18;;;;;;;8.10;2.10;;;;;8.20;100115.00;;;;10584459;28;20188;-77
2020/12/24 02:52:30;;;;;;;7.03;1.53;;;;;8.10;100117.00;;;;10568177;28;20203;-76
2020/12/24 02:57:32;;;;;;;11.63;2.17;;;;;8.20;100112.00;;;;10567238;28;20280;-76
2020/12/24 03:02:38;;;;;;;16.20;2.67;;;;;8.20;100112.00;;;;10587270;27;20593;-77
2020/12/24 03:07:40;;;;;;;11.40;2.07;;;;;8.20;100107.00;;;;10566644;28;20249;-76
2020/12/24 03:12:42;;;;;;;9.40;2.47;;;;;8.30;100117.00;;;;10567150;27;20188;-77
2020/12/24 03:17:43;;;;;;;9.77;2.50;;;;;8.30;100111.00;;;;10568631;27;20242;-76
2020/12/24 03:22:51;;;;;;;10.70;2.30;;;;;8.30;100118.00;;;;10563073;28;20223;-76
2020/12/24 03:27:53;;;;;;;6.60;2.00;;;;;8.20;100103.00;;;;10566107;28;20215;-76
2020/12/24 03:32:54;;;;;;;5.97;1.70;;;;;8.20;100109.00;;;;10566716;28;20208;-76
2020/12/24 03:37:55;;;;;;;6.43;1.80;;;;;8.10;100101.00;;;;10549615;28;20281;-76
2020/12/24 03:42:57;;;;;;;10.10;2.03;;;;;8.00;100105.00;;;;10527270;28;20215;-76
2020/12/24 03:47:58;;;;;;;7.97;2.23;;;;;7.90;100105.00;;;;10607284;27;20576;-76
2020/12/24 03:53:09;;;;;;;9.07;2.77;;;;;7.70;100096.00;;;;10569039;28;20245;-77
2020/12/24 03:58:11;;;;;;;7.17;1.57;;;;;7.50;100098.00;;;;10528636;28;20739;-77
2020/12/24 04:03:12;;;;;;;5.63;1.40;;;;;7.40;100089.00;;;;10591053;27;20620;-76
2020/12/24 04:08:14;;;;;;;6.53;1.63;;;;;7.30;100096.00;;;;10564601;28;20216;-77
2020/12/24 04:13:15;;;;;;;10.30;1.87;;;;;7.40;100091.00;;;;10530252;28;20252;-76
2020/12/24 04:18:16;;;;;;;7.57;1.90;;;;;7.50;100087.00;;;;10563791;28;20200;-76
2020/12/24 04:23:30;;;;;;;9.10;2.00;;;;;7.60;100094.00;;;;10547315;28;20196;-77
2020/12/24 04:28:32;;;;;;;8.20;1.70;;;;;7.70;100095.00;;;;10547102;28;20192;-76
2020/12/24 04:33:33;;;;;;;5.60;1.90;;;;;7.70;100096.00;;;;10558804;28;20227;-77
2020/12/24 04:38:34;;;;;;;11.97;2.37;;;;;7.70;100095.00;;;;10562198;28;20231;-77
2020/12/24 04:43:38;;;;;;;6.67;2.47;;;;;7.70;100102.00;;;;10559494;28;20254;-77
2020/12/24 04:48:41;;;;;;;11.50;1.73;;;;;7.70;100108.00;;;;10582044;28;20535;-77
2020/12/24 04:53:52;;;;;;;7.80;1.80;;;;;7.50;100095.00;;;;10546914;28;20192;-77
2020/12/24 04:58:53;;;;;;;4.00;1.53;;;;;7.30;100103.00;;;;10545900;28;20258;-77
2020/12/24 05:03:56;;;;;;;8.23;2.20;;;;;7.20;100113.00;;;;10571427;28;20257;-77
2020/12/24 05:08:59;;;;;;;8.33;1.70;;;;;7.30;100121.00;;;;10528996;28;20328;-77
2020/12/24 05:14:28;;;;;;;8.73;1.60;;;;;7.30;100115.00;;;;10528990;28;20200;-77
2020/12/24 05:19:34;;;;;;;8.20;2.00;;;;;7.40;100117.00;;;;10562737;28;20663;-77
2020/12/24 05:24:35;;;;;;;9.07;2.10;;;;;7.20;100109.00;;;;10545717;28;20186;-76
2020/12/24 05:29:43;;;;;;;14.07;2.23;;;;;7.20;100110.00;;;;10531448;28;20188;-77
2020/12/24 05:34:45;;;;;;;5.97;1.70;;;;;7.30;100102.00;;;;10537528;28;20242;-76
2020/12/24 05:39:47;;;;;;;10.77;2.03;;;;;7.20;100098.00;;;;10565268;28;20232;-77
2020/12/24 05:44:49;;;;;;;7.47;2.03;;;;;7.10;100104.00;;;;10536623;27;20216;-77
2020/12/24 05:49:50;;;;;;;14.40;2.43;;;;;7.10;100112.00;;;;10554150;28;20243;-77
2020/12/24 05:54:51;;;;;;;8.10;2.43;;;;;7.10;100108.00;;;;10553035;28;20644;-77
2020/12/24 05:59:54;;;;;;;12.93;2.63;;;;;7.20;100111.00;;;;10569944;28;20603;-76
2020/12/24 06:05:05;;;;;;;8.87;2.37;;;;;7.30;100116.00;;;;10569016;28;20231;-77
2020/12/24 06:10:08;;;;;;;12.27;2.73;;;;;7.30;100114.00;;;;10561404;27;20246;-77
2020/12/24 06:15:16;;;;;;;12.80;2.67;;;;;7.30;100113.00;;;;10546528;28;20207;-77
2020/12/24 06:20:19;;;;;;;6.90;2.57;;;;;7.30;100111.00;;;;10552576;28;20686;-77
2020/12/24 06:25:21;;;;;;;13.70;3.33;;;;;7.30;100122.00;;;;10535328;28;20188;-76
2020/12/24 06:30:26;;;;;;;13.17;2.30;;;;;7.40;100130.00;;;;10552370;28;20180;-77
2020/12/24 06:35:36;;;;;;;11.93;3.10;;;;;7.40;100126.00;;;;10552147;28;20196;-77
2020/12/24 06:40:39;;;;;;;13.43;3.40;;;;;7.30;100137.00;;;;10531905;28;20209;-77
2020/12/24 06:45:41;;;;;;;10.67;3.70;;;;;7.30;100144.00;;;;10537307;28;20216;-77
2020/12/24 06:51:02;;;;;;;12.07;3.63;;;;;7.40;100136.00;;;;10519142;28;20189;-76
2020/12/24 06:56:13;;;;;;;9.80;4.00;;;;;7.50;100147.00;;;;10508980;28;20232;-77
2020/12/24 07:01:16;;;;;;;12.70;3.87;;;;;7.50;100170.00;;;;10538399;28;20204;-77
2020/12/24 07:06:39;;;;;;;18.50;4.83;;;;;7.60;100172.00;;;;10567789;28;20192;-76
2020/12/24 07:11:45;;;;;;;9.53;5.00;;;;;7.60;100177.00;;;;10508761;28;20246;-77
2020/12/24 07:16:50;;;;;;;9.87;4.77;;;;;7.60;100192.00;;;;10544097;28;20208;-77
2020/12/24 07:21:53;;;;;;;9.47;4.77;;;;;7.70;100211.00;;;;10550032;28;20200;-77
2020/12/24 07:26:56;;;;;;;11.30;5.70;;;;;7.70;100215.00;;;;10567607;27;20818;-77
2020/12/24 07:32:02;;;;;;;14.27;7.30;;;;;7.70;100231.00;;;;10547369;27;20192;-77
2020/12/24 07:37:05;;;;;;;26.30;13.33;;;;;7.50;100257.00;;;;10566934;28;20268;-76
2020/12/24 07:42:06;;;;;;;11.60;8.23;;;;;7.20;100266.00;;;;10566347;28;20307;-78
2020/12/24 07:47:08;;;;;;;2.97;2.67;;;;;6.90;100286.00;;;;10565186;28;20253;-77
2020/12/24 07:52:11;;;;;;;4.27;3.30;;;;;6.70;100323.00;;;;10540309;28;20234;-76
2020/12/24 07:57:20;;;;;;;4.13;3.40;;;;;6.60;100356.00;;;;10564497;28;20253;-76
2020/12/24 08:02:22;;;;;;;3.60;3.27;;;;;6.40;100380.00;;;;10547042;28;20199;-77
2020/12/24 08:07:23;;;;;;;5.43;3.20;;;;;6.10;100416.00;;;;10564944;28;20317;-76
2020/12/24 08:12:25;;;;;;;2.97;2.77;;;;;5.80;100434.00;;;;10548437;28;20204;-76
2020/12/24 08:17:31;;;;;;;2.67;2.47;;;;;5.60;100449.00;;;;10505640;28;20196;-75
2020/12/24 08:22:42;;;;;;;2.53;2.33;;;;;5.40;100476.00;;;;10501851;28;20238;-75
2020/12/24 08:27:46;;;;;;;3.53;1.97;;;;;5.30;100497.00;;;;10532169;27;20642;-76
2020/12/24 08:32:48;;;;;;;3.30;2.17;;;;;5.20;100535.00;;;;10573526;27;20191;-75
2020/12/24 08:37:49;;;;;;;1.90;1.80;;;;;5.10;100559.00;;;;10546901;28;20613;-75
2020/12/24 08:43:00;;;;;;;2.27;2.07;;;;;5.10;100572.00;;;;10565027;27;20212;-76
2020/12/24 08:48:03;;;;;;;2.27;2.07;;;;;5.10;100609.00;;;;10559813;28;20237;-75
2020/12/24 08:53:05;;;;;;;2.27;2.00;;;;;5.10;100624.00;;;;10546415;28;20286;-75
2020/12/24 08:58:10;;;;;;;2.63;2.27;;;;;5.10;100652.00;;;;10527287;28;20710;-75
2020/12/24 09:03:27;;;;;;;2.00;1.90;;;;;5.10;100675.00;;;;10536812;28;20184;-75
2020/12/24 09:08:28;;;;;;;2.00;1.80;;;;;5.10;100700.00;;;;10546582;28;20196;-75
2020/12/24 09:13:30;;;;;;;1.93;1.83;;;;;5.20;100708.00;;;;10517701;28;20223;-75
2020/12/24 09:18:31;;;;;;;2.17;1.60;;;;;5.20;100716.00;;;;10545477;28;20277;-76
2020/12/24 09:23:32;;;;;;;2.10;1.90;;;;;5.40;100740.00;;;;10540412;28;20493;-76
2020/12/24 09:28:34;;;;;;;2.13;1.90;;;;;5.50;100750.00;;;;10544841;28;20216;-75
2020/12/24 09:33:35;;;;;;;2.67;1.90;;;;;5.50;100752.00;;;;10540944;28;20196;-75
2020/12/24 09:38:48;;;;;;;3.07;2.07;;;;;5.60;100755.00;;;;10580211;28;20231;-75
2020/12/24 09:43:50;;;;;;;2.90;1.97;;;;;5.60;100776.00;;;;10541373;28;20237;-76
2020/12/24 09:48:52;;;;;;;2.23;1.90;;;;;5.60;100774.00;;;;10587195;28;20542;-76
2020/12/24 09:53:53;;;;;;;2.23;1.70;;;;;5.50;100801.00;;;;10591966;28;20236;-76
2020/12/24 09:58:55;;;;;;;3.57;2.50;;;;;5.50;100818.00;;;;10541093;28;20256;-75
2020/12/24 10:03:57;;;;;;;2.67;2.27;;;;;5.40;100825.00;;;;10570176;28;20196;-76
2020/12/24 10:08:58;;;;;;;3.50;1.93;;;;;5.40;100848.00;;;;10548849;28;20224;-75
2020/12/24 10:13:59;;;;;;;2.97;2.30;;;;;5.40;100858.00;;;;10600550;28;20665;-76
2020/12/24 10:19:03;;;;;;;2.90;2.17;;;;;5.50;100870.00;;;;10610567;27;20214;-76
2020/12/24 10:24:05;;;;;;;3.60;2.07;;;;;5.50;100879.00;;;;10552858;27;20199;-76
2020/12/24 10:29:06;;;;;;;3.13;2.40;;;;;5.50;100877.00;;;;10566191;28;20184;-76
2020/12/24 10:34:07;;;;;;;3.53;2.10;;;;;5.50;100901.00;;;;10546470;27;20192;-76
2020/12/24 10:39:09;;;;;;;2.77;2.13;;;;;5.60;100888.00;;;;10572085;27;20700;-76
2020/12/24 10:44:11;;;;;;;3.40;2.43;;;;;5.60;100896.00;;;;10590714;27;20265;-76
2020/12/24 10:49:13;;;;;;;3.93;2.33;;;;;5.50;100886.00;;;;10554184;28;20184;-75
2020/12/24 10:54:14;;;;;;;4.73;2.73;;;;;5.50;100900.00;;;;10547405;27;20204;-76
2020/12/24 10:59:16;;;;;;;5.77;3.20;;;;;5.60;100905.00;;;;10568729;27;20889;-76
2020/12/24 11:04:18;;;;;;;7.07;2.80;;;;;5.60;100912.00;;;;10554422;27;20545;-75
2020/12/24 11:09:19;;;;;;;5.67;2.77;;;;;5.70;100903.00;;;;10566273;27;20608;-76
2020/12/24 11:14:20;;;;;;;3.50;2.70;;;;;5.80;100923.00;;;;10537245;28;20249;-76
2020/12/24 11:19:22;;;;;;;4.27;2.80;;;;;5.80;100933.00;;;;10563919;28;20239;-77
2020/12/24 11:24:23;;;;;;;3.70;2.20;;;;;5.90;100914.00;;;;10588509;27;20188;-76
2020/12/24 11:29:24;;;;;;;6.40;2.23;;;;;5.90;100923.00;;;;10562381;27;20224;-76
2020/12/24 11:34:28;;;;;;;3.73;1.80;;;;;6.00;100928.00;;;;10560701;27;20609;-76
2020/12/24 11:39:30;;;;;;;7.40;1.73;;;;;6.10;100923.00;;;;10557905;27;20288;-76
2020/12/24 11:44:36;;;;;;;2.13;1.20;;;;;6.20;100923.00;;;;10561502;27;20212;-76
2020/12/24 11:49:37;;;;;;;6.20;1.63;;;;;6.20;100926.00;;;;10569959;27;20321;-75
2020/12/24 11:54:38;;;;;;;4.50;1.80;;;;;6.20;100923.00;;;;10537973;27;20274;-76
2020/12/24 11:59:40;;;;;;;5.37;2.40;;;;;6.30;100928.00;;;;10558313;27;20340;-76
2020/12/24 12:04:41;;;;;;;4.67;1.10;;;;;6.50;100925.00;;;;10545572;27;20188;-75
2020/12/24 12:09:42;;;;;;;3.80;1.30;;;;;6.70;100920.00;;;;10519722;28;20241;-75
2020/12/24 12:14:44;;;;;;;5.70;1.67;;;;;6.90;100909.00;;;;10540191;27;20205;-75
2020/12/24 12:19:45;;;;;;;3.77;1.30;;;;;7.00;100916.00;;;;10549427;27;20203;-76
2020/12/24 12:24:47;;;;;;;5.23;1.20;;;;;7.00;100918.00;;;;10542754;28;20291;-76
2020/12/24 12:29:48;;;;;;;4.90;1.80;;;;;7.00;100916.00;;;;10579598;27;20225;-76
2020/12/24 12:34:49;;;;;;;7.63;1.90;;;;;7.10;100922.00;;;;10552236;27;20188;-75
2020/12/24 12:39:51;;;;;;;6.30;2.13;;;;;7.10;100920.00;;;;10544802;27;20544;-76
2020/12/24 12:44:52;;;;;;;8.90;2.20;;;;;7.20;100919.00;;;;10560900;27;20315;-75
2020/12/24 12:49:55;;;;;;;5.73;1.97;;;;;7.10;100921.00;;;;10580357;27;20194;-76
2020/12/24 12:54:57;;;;;;;5.83;2.10;;;;;7.10;100923.00;;;;10542470;28;20246;-76
2020/12/24 12:59:59;;;;;;;6.30;2.00;;;;;7.30;100922.00;;;;10579521;27;20303;-76
2020/12/24 13:05:04;;;;;;;6.40;2.27;;;;;7.40;100919.00;;;;10574541;27;20188;-76
2020/12/24 13:10:05;;;;;;;3.77;2.40;;;;;7.20;100940.00;;;;10539628;28;20253;-75
2020/12/24 13:15:08;;;;;;;2.20;1.70;;;;;6.90;100939.00;;;;10565891;28;20320;-75
2020/12/24 13:20:09;;;;;;;5.23;2.00;;;;;6.60;100932.00;;;;10561288;28;20570;-75
2020/12/24 13:25:11;;;;;;;6.80;1.80;;;;;6.70;100938.00;;;;10585323;28;20658;-75
2020/12/24 13:30:28;;;;;;;5.43;1.80;;;;;6.90;100941.00;;;;10549795;28;20240;-76
2020/12/24 13:35:31;;;;;;;6.27;1.97;;;;;7.00;100946.00;;;;10619926;28;20183;-76
2020/12/24 13:40:32;;;;;;;5.77;1.90;;;;;7.00;100948.00;;;;10599189;28;20204;-76
2020/12/24 13:45:33;;;;;;;5.70;1.67;;;;;6.90;100945.00;;;;10573815;28;20219;-75
2020/12/24 13:50:35;;;;;;;1.87;1.00;;;;;6.90;100947.00;;;;10552839;27;20183;-75
2020/12/24 13:55:37;;;;;;;6.97;2.10;;;;;7.30;100953.00;;;;10594068;27;20607;-75
2020/12/24 14:00:39;;;;;;;3.87;0.87;;;;;7.30;100942.00;;;;10557921;28;20238;-75
2020/12/24 14:05:40;;;;;;;2.43;1.20;;;;;7.10;100955.00;;;;10554097;27;20231;-75
2020/12/24 14:10:45;;;;;;;6.73;1.77;;;;;7.00;100948.00;;;;10629421;27;20215;-76
2020/12/24 14:15:46;;;;;;;5.00;1.53;;;;;7.10;100966.00;;;;10550923;28;20253;-75
2020/12/24 14:20:50;;;;;;;4.53;1.47;;;;;7.60;100969.00;;;;10569293;27;20253;-75
2020/12/24 14:25:52;;;;;;;6.80;1.43;;;;;7.30;100967.00;;;;10610364;27;20211;-76
2020/12/24 14:30:53;;;;;;;4.90;1.60;;;;;6.90;100967.00;;;;10605927;27;20271;-75
2020/12/24 14:35:54;;;;;;;7.43;2.13;;;;;6.70;100981.00;;;;10602963;27;20218;-75
2020/12/24 14:40:55;;;;;;;2.83;1.20;;;;;6.50;100972.00;;;;10556331;27;20572;-75
2020/12/24 14:46:02;;;;;;;9.47;1.03;;;;;6.40;100982.00;;;;10560435;28;20224;-76
2020/12/24 14:51:04;;;;;;;4.10;1.30;;;;;6.40;101000.00;;;;10585309;27;20647;-76
2020/12/24 14:56:05;;;;;;;3.60;1.07;;;;;6.10;101000.00;;;;10525689;27;20249;-76
2020/12/24 15:01:06;;;;;;;5.63;1.20;;;;;5.60;101036.00;;;;10545269;28;20196;-77
2020/12/24 15:06:12;;;;;;;2.90;0.80;;;;;5.00;101029.00;;;;10604951;27;20184;-78
2020/12/24 15:11:14;;;;;;;2.23;0.97;;;;;4.80;101039.00;;;;10565294;27;20186;-76
2020/12/24 15:16:18;;;;;;;2.83;1.10;;;;;4.80;101041.00;;;;10553796;28;20189;-76
2020/12/24 15:21:19;;;;;;;1.70;0.63;;;;;4.80;101055.00;;;;10578406;27;20211;-76
2020/12/24 15:26:21;;;;;;;3.20;1.27;;;;;4.80;101058.00;;;;10564529;28;20192;-76
2020/12/24 15:31:22;;;;;;;4.63;1.20;;;;;4.90;101061.00;;;;10583797;27;20223;-76
2020/12/24 15:36:23;;;;;;;2.63;1.20;;;;;4.90;101073.00;;;;10557532;28;20208;-76
2020/12/24 15:41:25;;;;;;;6.07;1.33;;;;;4.80;101071.00;;;;10557527;27;20234;-76
2020/12/24 15:46:27;;;;;;;6.90;1.80;;;;;4.80;101076.00;;;;10562880;27;20761;-76
2020/12/24 15:51:29;;;;;;;3.57;1.23;;;;;4.80;101089.00;;;;10590271;27;20546;-76
2020/12/24 15:56:32;;;;;;;2.23;0.90;;;;;4.80;101086.00;;;;10573183;27;20626;-76
2020/12/24 16:01:34;;;;;;;5.50;1.93;;;;;4.80;101103.00;;;;10570176;27;20200;-76
2020/12/24 16:06:39;;;;;;;3.63;2.40;;;;;4.70;101101.00;;;;10564682;28;20838;-76
2020/12/24 16:11:41;;;;;;;8.13;4.17;;;;;4.60;101123.00;;;;10548097;28;20211;-76
2020/12/24 16:16:42;;;;;;;12.40;6.30;;;;;4.50;101124.00;;;;10583936;27;20504;-76
2020/12/24 16:21:45;;;;;;;16.97;6.80;;;;;4.40;101133.00;;;;10572892;27;20275;-76
2020/12/24 16:26:46;;;;;;;11.40;4.83;;;;;4.30;101138.00;;;;10606803;27;20240;-76
2020/12/24 16:31:48;;;;;;;6.93;1.53;;;;;4.30;101134.00;;;;10589677;27;20191;-76
2020/12/24 16:36:53;;;;;;;4.67;1.47;;;;;4.50;101161.00;;;;10572945;27;20196;-76
2020/12/24 16:42:05;;;;;;;3.23;1.20;;;;;4.60;101152.00;;;;10606743;27;20662;-76
2020/12/24 16:47:06;;;;;;;4.50;1.40;;;;;4.70;101162.00;;;;10526313;28;20200;-76
2020/12/24 16:52:09;;;;;;;7.77;1.57;;;;;4.70;101168.00;;;;10505423;28;20185;-76
2020/12/24 16:57:10;;;;;;;8.73;2.33;;;;;4.70;101169.00;;;;10521056;28;20200;-76
2020/12/24 17:02:11;;;;;;;39.77;27.70;;;;;4.60;101181.00;;;;10538870;28;20211;-76
2020/12/24 17:07:14;;;;;;;8.90;6.03;;;;;4.60;101197.00;;;;10563146;28;20193;-76
2020/12/24 17:12:18;;;;;;;15.60;14.03;;;;;4.50;101203.00;;;;10547694;28;20267;-76
2020/12/24 17:17:21;;;;;;;9.33;2.77;;;;;4.50;101212.00;;;;10537950;28;20197;-76
2020/12/24 17:22:22;;;;;;;7.90;3.40;;;;;4.50;101215.00;;;;10538027;28;20235;-76
2020/12/24 17:27:23;;;;;;;7.17;2.20;;;;;4.50;101207.00;;;;10527108;28;20607;-76
2020/12/24 17:32:24;;;;;;;5.77;2.63;;;;;4.30;101215.00;;;;10545697;28;20664;-76
2020/12/24 17:37:26;;;;;;;19.20;10.87;;;;;4.30;101216.00;;;;10589808;28;20215;-76
2020/12/24 17:42:27;;;;;;;14.10;3.00;;;;;4.20;101231.00;;;;10553838;28;20220;-76
2020/12/24 17:47:28;;;;;;;9.47;3.47;;;;;4.10;101239.00;;;;10589580;28;20273;-76
2020/12/24 17:52:30;;;;;;;6.83;2.87;;;;;4.10;101256.00;;;;10560458;28;20573;-76
2020/12/24 17:57:31;;;;;;;5.53;2.20;;;;;4.00;101269.00;;;;10548127;28;20210;-76
2020/12/24 18:02:36;;;;;;;8.27;3.07;;;;;4.10;101266.00;;;;10552329;28;20318;-76
2020/12/24 18:07:38;;;;;;;12.43;3.67;;;;;4.10;101280.00;;;;10536397;28;20192;-76
2020/12/24 18:12:40;;;;;;;6.27;2.70;;;;;4.00;101286.00;;;;10553307;28;20262;-76
2020/12/24 18:17:41;;;;;;;7.13;3.50;;;;;3.90;101286.00;;;;10570214;28;20195;-76
2020/12/24 18:22:42;;;;;;;4.70;3.43;;;;;3.80;101297.00;;;;10535679;28;20212;-76
2020/12/24 18:27:44;;;;;;;9.37;3.83;;;;;3.70;101291.00;;;;10553076;28;20188;-76
2020/12/24 18:32:46;;;;;;;8.90;3.53;;;;;3.60;101297.00;;;;10587539;28;20188;-76
2020/12/24 18:37:47;;;;;;;7.33;4.03;;;;;3.50;101300.00;;;;10550780;28;20294;-76
2020/12/24 18:42:49;;;;;;;10.30;4.87;;;;;3.50;101305.00;;;;10537537;27;20808;-76
2020/12/24 18:47:50;;;;;;;10.63;3.97;;;;;3.50;101319.00;;;;10611251;27;20550;-76
2020/12/24 18:52:52;;;;;;;15.53;4.03;;;;;3.50;101310.00;;;;10576808;27;20187;-76
2020/12/24 18:57:57;;;;;;;8.20;3.80;;;;;3.50;101328.00;;;;10593170;27;20199;-76
2020/12/24 19:03:00;;;;;;;11.37;4.40;;;;;3.50;101340.00;;;;10550834;27;20759;-76
2020/12/24 19:08:03;;;;;;;8.57;3.80;;;;;3.50;101335.00;;;;10568073;28;20230;-76
2020/12/24 19:13:04;;;;;;;10.13;3.77;;;;;3.60;101329.00;;;;10550811;28;20278;-76
2020/12/24 19:18:05;;;;;;;16.27;4.87;;;;;3.70;101332.00;;;;10533631;28;20252;-76
2020/12/24 19:23:06;;;;;;;7.63;3.10;;;;;3.80;101334.00;;;;10550231;28;20196;-76
2020/12/24 19:28:08;;;;;;;10.97;4.07;;;;;3.70;101340.00;;;;10609885;27;20280;-76
2020/12/24 19:33:11;;;;;;;10.03;3.50;;;;;3.70;101339.00;;;;10609953;27;20195;-76
2020/12/24 19:38:12;;;;;;;14.80;3.70;;;;;3.60;101360.00;;;;10591750;27;20722;-76
2020/12/24 19:43:14;;;;;;;11.03;4.43;;;;;3.50;101360.00;;;;10553664;27;20231;-76
2020/12/24 19:48:15;;;;;;;8.27;3.87;;;;;3.50;101370.00;;;;10608540;27;20191;-76
2020/12/24 19:53:16;;;;;;;5.83;3.67;;;;;3.50;101384.00;;;;10608347;27;20658;-76
2020/12/24 19:58:19;;;;;;;13.93;4.23;;;;;3.40;101379.00;;;;10590585;27;20227;-76
2020/12/24 20:03:29;;;;;;;13.80;4.77;;;;;3.40;101389.00;;;;10577887;28;20208;-76
2020/12/24 20:08:30;;;;;;;8.80;3.77;;;;;3.40;101382.00;;;;10548067;28;20647;-76
2020/12/24 20:13:33;;;;;;;8.27;3.30;;;;;3.30;101382.00;;;;10521149;28;20196;-76
2020/12/24 20:18:36;;;;;;;14.13;4.23;;;;;3.20;101375.00;;;;10547423;28;20243;-76
2020/12/24 20:23:37;;;;;;;11.90;3.67;;;;;3.10;101386.00;;;;10530785;28;20881;-76
2020/12/24 20:28:41;;;;;;;12.57;4.40;;;;;3.10;101386.00;;;;10564391;28;20588;-76
2020/12/24 20:33:48;;;;;;;7.90;4.13;;;;;3.10;101392.00;;;;10547181;28;20245;-76
2020/12/24 20:38:50;;;;;;;10.90;4.03;;;;;3.20;101395.00;;;;10530446;28;20540;-76
2020/12/24 20:43:53;;;;;;;11.50;3.83;;;;;3.20;101404.00;;;;10547519;28;20540;-76
2020/12/24 20:48:54;;;;;;;9.60;3.87;;;;;3.20;101410.00;;;;10582639;28;20188;-76
2020/12/24 20:53:55;;;;;;;12.77;4.43;;;;;3.00;101419.00;;;;10563144;28;20306;-76
2020/12/24 20:58:58;;;;;;;8.73;3.70;;;;;3.00;101418.00;;;;10562509;28;20254;-76
2020/12/24 21:04:11;;;;;;;15.40;4.83;;;;;2.90;101417.00;;;;10528165;28;20185;-76
2020/12/24 21:09:12;;;;;;;20.93;5.27;;;;;2.80;101432.00;;;;10581598;28;20180;-76
2020/12/24 21:14:14;;;;;;;12.77;4.40;;;;;2.90;101438.00;;;;10577180;28;20207;-76
2020/12/24 21:19:16;;;;;;;8.33;4.20;;;;;3.00;101449.00;;;;10571127;28;20203;-76
2020/12/24 21:24:17;;;;;;;10.53;4.27;;;;;3.10;101454.00;;;;10574446;28;20667;-76
2020/12/24 21:29:19;;;;;;;11.93;6.03;;;;;3.20;101455.00;;;;10529129;28;20192;-76
2020/12/24 21:34:30;;;;;;;12.63;4.27;;;;;3.30;101450.00;;;;10547649;28;20188;-76
2020/12/24 21:39:31;;;;;;;14.03;5.37;;;;;3.40;101450.00;;;;10512472;28;20311;-76
2020/12/24 21:44:33;;;;;;;15.03;4.60;;;;;3.30;101459.00;;;;10528874;28;20220;-76
2020/12/24 21:49:34;;;;;;;20.87;4.37;;;;;3.30;101462.00;;;;10563006;28;20279;-76
2020/12/24 21:54:35;;;;;;;15.63;4.47;;;;;3.30;101462.00;;;;10545804;28;20223;-76
2020/12/24 21:59:37;;;;;;;16.53;4.27;;;;;3.30;101473.00;;;;10545092;28;20208;-76
2020/12/24 22:04:48;;;;;;;16.10;4.07;;;;;3.40;101477.00;;;;10501781;28;20193;-76
2020/12/24 22:09:50;;;;;;;11.00;3.47;;;;;3.60;101483.00;;;;10520893;28;20200;-76
2020/12/24 22:14:53;;;;;;;19.53;4.50;;;;;3.70;101488.00;;;;10527413;28;20222;-76
2020/12/24 22:19:54;;;;;;;14.27;3.90;;;;;3.80;101497.00;;;;10494894;28;20213;-76
2020/12/24 22:24:55;;;;;;;10.67;4.10;;;;;3.80;101497.00;;;;10527992;28;20185;-76
2020/12/24 22:29:58;;;;;;;16.10;3.60;;;;;3.80;101492.00;;;;10493657;28;20221;-76
2020/12/24 22:35:12;;;;;;;11.40;2.60;;;;;3.80;101495.00;;;;10526875;28;20709;-76
2020/12/24 22:40:14;;;;;;;15.23;3.40;;;;;3.80;101504.00;;;;10526635;28;20258;-76
2020/12/24 22:45:16;;;;;;;15.67;3.37;;;;;3.90;101504.00;;;;10550189;28;20212;-76
2020/12/24 22:50:18;;;;;;;21.57;5.83;;;;;3.90;101508.00;;;;10552410;28;20188;-76
2020/12/24 22:55:19;;;;;;;13.63;3.40;;;;;3.90;101515.00;;;;10551263;28;20249;-76
2020/12/24 23:00:29;;;;;;;15.00;3.87;;;;;4.00;101528.00;;;;10585452;28;20245;-76
2020/12/24 23:05:32;;;;;;;15.60;3.93;;;;;4.00;101534.00;;;;10525436;28;20196;-76
2020/12/24 23:10:34;;;;;;;9.73;4.13;;;;;4.00;101550.00;;;;10508919;28;20215;-76
2020/12/24 23:15:35;;;;;;;10.37;2.83;;;;;4.00;101548.00;;;;10567083;28;20239;-76
2020/12/24 23:20:36;;;;;;;11.00;3.17;;;;;3.80;101542.00;;;;10533423;28;20270;-76
2020/12/24 23:25:38;;;;;;;14.73;4.37;;;;;3.70;101537.00;;;;10550251;28;20218;-76
2020/12/24 23:30:39;;;;;;;19.67;5.37;;;;;3.60;101550.00;;;;10533315;28;20184;-76
2020/12/24 23:35:50;;;;;;;11.87;3.00;;;;;3.40;101548.00;;;;10534279;28;20207;-76
2020/12/24 23:40:51;;;;;;;10.17;3.37;;;;;3.30;101561.00;;;;10516251;28;20239;-76
2020/12/24 23:45:52;;;;;;;8.00;3.13;;;;;3.20;101565.00;;;;10550129;28;20216;-76
2020/12/24 23:50:54;;;;;;;6.33;2.77;;;;;3.20;101579.00;;;;10566559;28;20225;-76
2020/12/24 23:55:55;;;;;;;8.13;3.57;;;;;3.20;101574.00;;;;10549195;28;20204;-76
